createdAt,value
2022-12-18T00:00:47.960Z,38.78
2022-12-18T00:03:34.826Z,42.45
2022-12-18T00:06:21.994Z,43.17
2022-12-18T00:09:07.515Z,47.20
2022-12-18T00:11:52.937Z,40.40
2022-12-18T00:14:38.434Z,38.92
2022-12-18T00:17:29.832Z,41.63
2022-12-18T00:20:15.548Z,43.20
2022-12-18T00:23:01.538Z,41.10
2022-12-18T00:25:47.029Z,37.90
2022-12-18T00:28:33.135Z,44.70
2022-12-18T00:31:22.365Z,38.67
2022-12-18T00:34:10.382Z,41.70
2022-12-18T00:36:58.504Z,42.63
2022-12-18T00:39:44.087Z,34.08
2022-12-18T00:42:48.101Z,38.45
2022-12-18T00:45:33.714Z,38.72
2022-12-18T00:48:19.524Z,39.90
2022-12-18T00:51:05.170Z,43.00
2022-12-18T00:53:51.040Z,43.47
2022-12-18T00:56:48.066Z,35.38
2022-12-18T00:59:34.709Z,35.15
2022-12-18T01:02:20.492Z,32.75
2022-12-18T01:05:06.355Z,33.92
2022-12-18T01:07:52.139Z,40.72
2022-12-18T01:10:41.722Z,38.38
2022-12-18T01:13:28.489Z,31.80
2022-12-18T01:16:16.299Z,34.20
2022-12-18T01:19:02.279Z,31.20
2022-12-18T01:21:47.914Z,34.15
2022-12-18T01:24:33.604Z,34.55
2022-12-18T01:27:19.058Z,30.08
2022-12-18T01:30:05.814Z,32.85
2022-12-18T01:32:51.726Z,33.17
2022-12-18T01:35:43.076Z,33.03
2022-12-18T01:38:29.923Z,32.33
2022-12-18T01:41:17.923Z,32.72
2022-12-18T01:44:42.434Z,36.35
2022-12-18T01:47:48.301Z,29.02
2022-12-18T01:50:38.472Z,28.38
2022-12-18T01:53:25.102Z,32.90
2022-12-18T01:56:15.600Z,30.52
2022-12-18T01:59:07.093Z,28.52
2022-12-18T02:01:52.679Z,32.95
2022-12-18T02:04:38.751Z,32.25
2022-12-18T02:07:52.307Z,30.45
2022-12-18T02:10:53.622Z,31.48
2022-12-18T02:13:43.454Z,27.92
2022-12-18T02:16:52.139Z,28.75
2022-12-18T02:19:37.933Z,32.35
2022-12-18T02:22:54.797Z,32.90
2022-12-18T02:26:02.184Z,34.22
2022-12-18T02:28:59.990Z,31.90
2022-12-18T02:31:53.073Z,35.00
2022-12-18T02:34:40.842Z,34.90
2022-12-18T02:37:33.341Z,34.42
2022-12-18T02:40:22.855Z,30.52
2022-12-18T02:43:14.899Z,35.33
2022-12-18T02:46:02.597Z,40.22
2022-12-18T02:48:52.540Z,37.25
2022-12-18T02:51:43.623Z,40.90
2022-12-18T02:54:32.182Z,40.25
2022-12-18T02:57:24.453Z,36.67
2022-12-18T03:00:17.085Z,41.80
2022-12-18T03:03:24.143Z,33.35
2022-12-18T03:06:29.052Z,43.22
2022-12-18T03:09:32.686Z,42.33
2022-12-18T03:12:28.530Z,40.97
2022-12-18T03:15:45.073Z,44.42
2022-12-18T03:18:46.856Z,40.53
2022-12-18T03:21:46.097Z,44.95
2022-12-18T03:24:35.820Z,41.38
2022-12-18T03:27:25.272Z,44.33
2022-12-18T03:30:14.897Z,38.08
2022-12-18T03:33:12.084Z,36.88
2022-12-18T03:36:02.757Z,40.95
2022-12-18T03:38:48.567Z,36.30
2022-12-18T03:41:44.041Z,34.92
2022-12-18T03:45:25.671Z,40.58
2022-12-18T03:48:38.868Z,34.40
2022-12-18T03:51:49.577Z,39.03
2022-12-18T03:54:37.360Z,37.95
2022-12-18T03:57:32.572Z,34.17
2022-12-18T04:00:19.491Z,34.58
2022-12-18T04:03:15.766Z,34.83
2022-12-18T04:06:07.214Z,37.08
2022-12-18T04:08:53.261Z,35.53
2022-12-18T04:11:44.732Z,29.55
2022-12-18T04:14:36.495Z,31.08
2022-12-18T04:17:23.930Z,32.85
2022-12-18T04:20:10.191Z,33.10
2022-12-18T04:22:59.132Z,31.10
2022-12-18T04:25:44.684Z,26.38
2022-12-18T04:28:35.662Z,28.75
2022-12-18T04:31:22.613Z,26.35
2022-12-18T04:34:09.098Z,26.60
2022-12-18T04:37:00.469Z,28.80
2022-12-18T04:39:46.610Z,25.55
2022-12-18T04:42:41.427Z,28.25
2022-12-18T04:45:27.136Z,25.75
2022-12-18T04:48:12.746Z,25.05
2022-12-18T04:50:58.458Z,27.20
2022-12-18T04:53:46.724Z,30.48
2022-12-18T04:56:33.108Z,27.85
2022-12-18T04:59:18.935Z,27.20
2022-12-18T05:02:04.460Z,26.60
2022-12-18T05:04:51.024Z,25.20
2022-12-18T05:07:36.544Z,25.73
2022-12-18T05:10:22.273Z,28.60
2022-12-18T05:13:07.605Z,30.13
2022-12-18T05:15:54.090Z,26.10
2022-12-18T05:18:39.779Z,26.77
2022-12-18T05:21:25.588Z,25.88
2022-12-18T05:24:11.400Z,26.60
2022-12-18T05:26:57.183Z,26.33
2022-12-18T05:29:42.578Z,28.05
2022-12-18T05:32:28.050Z,25.58
2022-12-18T05:35:13.537Z,25.70
2022-12-18T05:37:59.275Z,28.40
2022-12-18T05:40:45.251Z,24.40
2022-12-18T05:43:31.131Z,25.35
2022-12-18T05:46:21.177Z,23.70
2022-12-18T05:49:06.927Z,23.33
2022-12-18T05:51:52.526Z,25.02
2022-12-18T05:54:37.989Z,22.65
2022-12-18T05:57:24.098Z,22.23
2022-12-18T06:00:10.665Z,22.05
2022-12-18T06:02:57.576Z,20.63
2022-12-18T06:05:45.930Z,22.98
2022-12-18T06:08:31.575Z,24.85
2022-12-18T06:11:20.028Z,22.63
2022-12-18T06:14:06.881Z,26.73
2022-12-18T06:16:53.290Z,24.85
2022-12-18T06:19:38.920Z,21.23
2022-12-18T06:22:24.915Z,23.83
2022-12-18T06:25:10.718Z,24.67
2022-12-18T06:27:56.269Z,27.15
2022-12-18T06:30:45.223Z,25.50
2022-12-18T06:33:30.879Z,23.53
2022-12-18T06:36:17.598Z,20.73
2022-12-18T06:39:03.875Z,23.13
2022-12-18T06:41:49.489Z,26.35
2022-12-18T06:44:35.058Z,24.73
2022-12-18T06:47:20.706Z,25.85
2022-12-18T06:50:07.060Z,23.67
2022-12-18T06:52:52.859Z,27.50
2022-12-18T06:55:38.208Z,21.15
2022-12-18T06:58:24.322Z,23.10
2022-12-18T07:01:12.008Z,22.30
2022-12-18T07:03:58.567Z,26.95
2022-12-18T07:06:44.130Z,23.63
2022-12-18T07:09:29.668Z,28.23
2022-12-18T07:12:15.205Z,29.35
2022-12-18T07:15:00.645Z,29.60
2022-12-18T07:17:46.092Z,30.00
2022-12-18T07:20:31.922Z,26.73
2022-12-18T07:23:17.568Z,31.55
2022-12-18T07:26:08.550Z,25.75
2022-12-18T07:28:58.398Z,25.65
2022-12-18T07:31:44.537Z,26.10
2022-12-18T07:34:30.214Z,28.13
2022-12-18T07:37:15.979Z,31.10
2022-12-18T07:40:01.951Z,31.20
2022-12-18T07:42:47.697Z,30.48
2022-12-18T07:45:33.523Z,26.80
2022-12-18T07:48:19.110Z,27.73
2022-12-18T07:51:06.694Z,24.05
2022-12-18T07:53:52.785Z,24.92
2022-12-18T07:56:38.622Z,23.80
2022-12-18T07:59:24.116Z,23.27
2022-12-18T08:02:09.801Z,23.35
2022-12-18T08:04:55.588Z,22.75
2022-12-18T08:07:41.164Z,23.27
2022-12-18T08:10:26.876Z,23.05
2022-12-18T08:13:12.473Z,28.15
2022-12-18T08:16:06.989Z,32.03
2022-12-18T08:18:54.256Z,29.17
2022-12-18T08:21:43.279Z,33.17
2022-12-18T08:24:29.109Z,33.95
2022-12-18T08:27:29.245Z,33.42
2022-12-18T08:30:15.597Z,35.75
2022-12-18T08:33:01.061Z,36.03
2022-12-18T08:35:46.547Z,31.88
2022-12-18T08:38:33.475Z,37.97
2022-12-18T08:41:20.284Z,39.67
2022-12-18T08:44:29.052Z,39.10
2022-12-18T08:47:14.812Z,43.60
2022-12-18T08:50:00.413Z,41.60
2022-12-18T08:52:45.921Z,30.90
2022-12-18T08:55:32.527Z,35.00
2022-12-18T08:58:18.117Z,50.35
2022-12-18T09:01:10.084Z,38.22
2022-12-18T09:03:55.635Z,39.33
2022-12-18T09:06:41.562Z,37.42
2022-12-18T09:09:27.154Z,36.90
2022-12-18T09:12:12.957Z,40.13
2022-12-18T09:14:58.864Z,36.97
2022-12-18T09:17:44.707Z,37.47
2022-12-18T09:20:30.957Z,36.78
2022-12-18T09:23:16.669Z,37.88
2022-12-18T09:26:02.593Z,34.00
2022-12-18T09:28:48.583Z,41.83
2022-12-18T09:31:34.607Z,38.47
2022-12-18T09:34:22.765Z,44.83
2022-12-18T09:37:08.283Z,43.90
2022-12-18T09:39:53.863Z,34.55
2022-12-18T09:42:39.556Z,44.85
2022-12-18T09:45:25.621Z,36.53
2022-12-18T09:48:29.884Z,41.70
2022-12-18T09:51:24.514Z,40.65
2022-12-18T09:54:40.407Z,40.40
2022-12-18T09:57:32.092Z,38.13
2022-12-18T10:00:21.623Z,34.58
2022-12-18T10:03:12.482Z,32.63
2022-12-18T10:06:06.810Z,32.28
2022-12-18T10:09:02.511Z,36.08
2022-12-18T10:11:59.440Z,31.67
2022-12-18T10:15:25.530Z,33.15
2022-12-18T10:18:22.048Z,32.95
2022-12-18T10:21:24.810Z,26.27
2022-12-18T10:24:13.417Z,32.33
2022-12-18T10:27:19.551Z,31.45
2022-12-18T10:30:15.462Z,25.42
2022-12-18T10:33:04.486Z,28.00
2022-12-18T10:35:53.907Z,31.77
2022-12-18T10:38:40.113Z,32.10
2022-12-18T10:41:29.193Z,29.35
2022-12-18T10:44:22.011Z,26.40
2022-12-18T10:47:15.141Z,30.02
2022-12-18T10:50:00.631Z,24.95
2022-12-18T10:52:58.595Z,22.23
2022-12-18T10:55:47.860Z,31.40
2022-12-18T10:58:36.466Z,34.83
2022-12-18T11:01:22.332Z,34.63
2022-12-18T11:04:16.752Z,40.20
2022-12-18T11:07:09.976Z,40.63
2022-12-18T11:10:03.969Z,43.17
2022-12-18T11:12:50.209Z,43.13
2022-12-18T11:15:35.836Z,41.78
2022-12-18T11:18:35.367Z,37.70
2022-12-18T11:24:41.544Z,33.97
2022-12-18T11:27:29.103Z,39.08
2022-12-18T11:30:28.475Z,39.42
2022-12-18T11:33:21.743Z,32.67
2022-12-18T11:36:10.314Z,40.25
2022-12-18T11:39:00.445Z,42.55
2022-12-18T11:45:13.673Z,38.97
2022-12-18T11:48:08.052Z,34.60
2022-12-18T11:50:57.493Z,32.08
2022-12-18T11:53:42.946Z,39.60
2022-12-18T11:56:36.606Z,37.75
2022-12-18T11:59:31.448Z,33.35
2022-12-18T12:02:55.035Z,34.03
2022-12-18T12:05:58.336Z,33.65
2022-12-18T12:08:50.110Z,35.63
2022-12-18T12:11:56.116Z,29.92
2022-12-18T12:15:13.652Z,30.48
2022-12-18T12:18:13.598Z,31.77
2022-12-18T12:21:29.532Z,30.52
2022-12-18T12:24:42.945Z,30.42
2022-12-18T12:28:05.688Z,30.25
2022-12-18T12:30:52.344Z,29.02
2022-12-18T12:34:10.199Z,33.55
2022-12-18T12:37:05.375Z,31.70
2022-12-18T12:39:52.953Z,29.77
2022-12-18T12:43:08.778Z,33.78
2022-12-18T12:46:09.610Z,31.63
2022-12-18T12:49:03.526Z,29.75
2022-12-18T12:52:08.743Z,32.60
2022-12-18T12:54:55.161Z,35.30
2022-12-18T12:57:56.166Z,33.08
2022-12-18T13:01:24.197Z,32.80
2022-12-18T13:04:39.184Z,30.73
2022-12-18T13:07:48.778Z,35.72
2022-12-18T13:10:37.679Z,37.60
2022-12-18T13:16:11.569Z,34.75
2022-12-18T13:18:59.708Z,34.25
2022-12-18T13:21:55.216Z,35.22
2022-12-18T13:24:40.628Z,39.97
2022-12-18T13:27:41.569Z,34.30
2022-12-18T13:30:33.590Z,38.75
2022-12-18T13:33:24.772Z,38.10
2022-12-18T13:36:13.693Z,35.92
2022-12-18T13:39:30.058Z,37.13
2022-12-18T13:42:38.066Z,34.13
2022-12-18T13:45:41.154Z,35.08
2022-12-18T13:48:28.722Z,37.40
2022-12-18T13:51:19.342Z,34.35
2022-12-18T13:54:26.137Z,34.55
2022-12-18T13:57:32.092Z,32.80
2022-12-18T14:00:21.153Z,33.03
2022-12-18T14:03:25.040Z,34.03
2022-12-18T14:06:13.411Z,33.17
2022-12-18T14:09:00.813Z,38.85
2022-12-18T14:11:51.274Z,37.13
2022-12-18T14:14:37.893Z,42.17
2022-12-18T14:17:24.209Z,36.22
2022-12-18T14:20:16.328Z,43.15
2022-12-18T14:23:02.070Z,38.92
2022-12-18T14:25:48.106Z,36.00
2022-12-18T14:28:33.751Z,35.97
2022-12-18T14:31:21.399Z,37.35
2022-12-18T14:34:16.895Z,36.83
2022-12-18T14:37:03.009Z,35.47
2022-12-18T14:40:02.139Z,35.05
2022-12-18T14:42:50.562Z,36.28
2022-12-18T14:45:43.782Z,39.25
2022-12-18T14:48:43.492Z,33.80
2022-12-18T14:51:31.715Z,38.53
2022-12-18T14:54:19.878Z,42.40
2022-12-18T14:57:17.101Z,39.13
2022-12-18T15:00:17.556Z,37.15
2022-12-18T15:03:08.232Z,34.63
2022-12-18T15:05:54.024Z,36.75
2022-12-18T15:08:39.796Z,41.13
2022-12-18T15:11:36.863Z,37.50
2022-12-18T15:14:35.838Z,37.55
2022-12-18T15:17:23.944Z,35.20
2022-12-18T15:20:12.098Z,37.05
2022-12-18T15:22:57.456Z,34.53
2022-12-18T15:25:43.069Z,38.53
2022-12-18T15:28:58.395Z,36.67
2022-12-18T15:31:44.123Z,38.53
2022-12-18T15:34:30.462Z,35.60
2022-12-18T15:37:17.243Z,34.80
2022-12-18T15:40:03.244Z,35.78
2022-12-18T15:43:08.160Z,39.38
2022-12-18T15:45:53.760Z,39.47
2022-12-18T15:48:44.542Z,32.92
2022-12-18T15:51:35.909Z,36.05
2022-12-18T15:54:40.949Z,43.10
2022-12-18T15:57:26.550Z,40.03
2022-12-18T16:00:13.779Z,42.35
2022-12-18T16:03:00.163Z,37.72
2022-12-18T16:05:45.748Z,38.83
2022-12-18T16:08:31.709Z,40.88
2022-12-18T16:11:38.903Z,42.25
2022-12-18T16:14:28.205Z,38.88
2022-12-18T16:17:15.593Z,43.95
2022-12-18T16:20:01.368Z,43.67
2022-12-18T16:22:47.782Z,43.13
2022-12-18T16:25:34.134Z,40.78
2022-12-18T16:28:20.190Z,41.63
2022-12-18T16:31:06.078Z,40.95
2022-12-18T16:34:11.464Z,37.13
2022-12-18T16:37:04.801Z,38.55
2022-12-18T16:39:51.269Z,41.00
2022-12-18T16:42:38.027Z,39.67
2022-12-18T16:45:23.318Z,41.75
2022-12-18T16:48:11.995Z,40.95
2022-12-18T16:51:05.617Z,44.55
2022-12-18T16:53:51.357Z,39.95
2022-12-18T16:56:36.835Z,40.05
2022-12-18T16:59:22.930Z,45.53
2022-12-18T17:02:23.707Z,39.80
2022-12-18T17:05:09.821Z,36.20
2022-12-18T17:07:57.510Z,44.20
2022-12-18T17:10:42.938Z,41.45
2022-12-18T17:13:28.675Z,39.00
2022-12-18T17:16:14.554Z,41.63
2022-12-18T17:19:00.093Z,39.10
2022-12-18T17:21:48.893Z,40.88
2022-12-18T17:24:35.362Z,37.78
2022-12-18T17:27:21.356Z,41.55
2022-12-18T17:30:07.869Z,42.97
2022-12-18T17:32:53.358Z,42.50
2022-12-18T17:35:38.801Z,39.28
2022-12-18T17:38:24.457Z,40.13
2022-12-18T17:41:11.649Z,42.47
2022-12-18T17:44:03.622Z,41.83
2022-12-18T17:46:49.613Z,39.17
2022-12-18T17:49:35.129Z,45.92
2022-12-18T17:52:20.733Z,49.50
2022-12-18T17:55:07.002Z,46.03
2022-12-18T17:57:52.561Z,45.40
2022-12-18T18:00:40.892Z,47.92
2022-12-18T18:03:26.683Z,55.35
2022-12-18T18:06:12.633Z,52.75
2022-12-18T18:08:58.711Z,53.40
2022-12-18T18:12:06.026Z,54.20
2022-12-18T18:14:51.763Z,55.22
2022-12-18T18:17:37.255Z,53.83
2022-12-18T18:20:23.046Z,50.60
2022-12-18T18:23:08.988Z,50.78
2022-12-18T18:25:54.866Z,49.15
2022-12-18T18:28:41.456Z,48.55
2022-12-18T18:31:28.945Z,51.97
2022-12-18T18:34:20.175Z,46.75
2022-12-18T18:37:05.987Z,62.35
2022-12-18T18:39:51.748Z,70.85
2022-12-18T18:42:37.323Z,67.60
2022-12-18T18:45:22.937Z,59.33
2022-12-18T18:48:08.543Z,49.47
2022-12-18T18:50:58.857Z,41.78
2022-12-18T18:53:46.068Z,43.10
2022-12-18T18:59:38.162Z,48.40
2022-12-18T19:02:24.195Z,49.13
2022-12-18T19:05:11.379Z,46.20
2022-12-18T19:07:57.195Z,41.13
2022-12-18T19:10:43.005Z,46.55
2022-12-18T19:13:31.948Z,46.85
2022-12-18T19:16:18.144Z,43.65
2022-12-18T19:19:04.240Z,39.78
2022-12-18T19:21:50.130Z,40.22
2022-12-18T19:24:36.039Z,35.83
2022-12-18T19:27:21.938Z,31.38
2022-12-18T19:30:08.390Z,35.30
2022-12-18T19:32:54.191Z,32.75
2022-12-18T19:35:40.151Z,32.10
2022-12-18T19:38:26.289Z,30.23
2022-12-18T19:41:13.651Z,31.10
2022-12-18T19:44:02.398Z,30.13
2022-12-18T19:46:54.219Z,32.90
2022-12-18T19:49:40.333Z,32.20
2022-12-18T19:52:25.858Z,28.60
2022-12-18T19:55:11.483Z,28.35
2022-12-18T19:57:58.002Z,30.42
2022-12-18T20:00:43.268Z,32.35
2022-12-18T20:03:32.560Z,35.17
2022-12-18T20:06:25.669Z,49.97
2022-12-18T20:09:11.584Z,49.22
2022-12-18T20:11:57.068Z,39.50
2022-12-18T20:14:43.051Z,33.88
2022-12-18T20:17:28.767Z,34.38
2022-12-18T20:20:15.403Z,31.88
2022-12-18T20:23:01.112Z,36.83
2022-12-18T20:25:46.590Z,30.80
2022-12-18T20:28:32.048Z,31.75
2022-12-18T20:31:17.695Z,31.23
2022-12-18T20:34:05.037Z,31.85
2022-12-18T20:36:51.779Z,27.98
2022-12-18T20:39:38.393Z,32.30
2022-12-18T20:42:25.387Z,28.10
2022-12-18T20:45:11.407Z,28.27
2022-12-18T20:47:57.242Z,28.45
2022-12-18T20:50:43.465Z,26.75
2022-12-18T20:53:29.705Z,29.08
2022-12-18T20:56:20.843Z,28.15
2022-12-18T20:59:07.521Z,29.02
2022-12-18T21:01:53.208Z,28.00
2022-12-18T21:04:39.002Z,26.15
2022-12-18T21:07:24.717Z,26.10
2022-12-18T21:10:10.402Z,31.13
2022-12-18T21:13:04.606Z,26.40
2022-12-18T21:15:54.470Z,28.38
2022-12-18T21:18:40.632Z,27.92
2022-12-18T21:21:26.851Z,27.20
2022-12-18T21:24:13.018Z,27.25
2022-12-18T21:26:58.527Z,29.40
2022-12-18T21:29:44.261Z,27.08
2022-12-18T21:32:33.463Z,24.60
2022-12-18T21:35:20.560Z,25.08
2022-12-18T21:38:07.713Z,25.02
2022-12-18T21:40:53.230Z,25.55
2022-12-18T21:44:00.468Z,28.58
2022-12-18T21:46:54.848Z,22.65
2022-12-18T21:49:42.375Z,24.80
2022-12-18T21:52:31.872Z,26.15
2022-12-18T21:55:18.460Z,27.13
2022-12-18T21:58:03.993Z,28.15
2022-12-18T22:00:50.158Z,24.77
2022-12-18T22:03:35.709Z,27.65
2022-12-18T22:06:22.401Z,26.67
2022-12-18T22:09:09.232Z,25.02
2022-12-18T22:11:54.706Z,26.70
2022-12-18T22:14:40.380Z,28.95
2022-12-18T22:17:26.262Z,24.42
2022-12-18T22:20:13.706Z,25.70
2022-12-18T22:22:59.967Z,28.52
2022-12-18T22:25:51.503Z,25.42
2022-12-18T22:28:55.524Z,29.35
2022-12-18T22:31:41.143Z,23.45
2022-12-18T22:34:26.671Z,29.80
2022-12-18T22:37:12.553Z,26.08
2022-12-18T22:39:58.058Z,23.73
2022-12-18T22:42:43.574Z,28.20
2022-12-18T22:45:29.031Z,27.67
2022-12-18T22:48:14.887Z,23.35
2022-12-18T22:51:03.182Z,27.70
2022-12-18T22:53:49.156Z,25.70
2022-12-18T22:56:35.198Z,28.45
2022-12-18T22:59:22.774Z,27.60
2022-12-18T23:02:08.691Z,24.52
2022-12-18T23:04:54.152Z,26.02
2022-12-18T23:07:39.888Z,26.23
2022-12-18T23:10:25.615Z,24.85
2022-12-18T23:13:11.307Z,25.10
2022-12-18T23:15:56.919Z,24.00
2022-12-18T23:18:42.984Z,24.73
2022-12-18T23:21:28.452Z,23.33
2022-12-18T23:24:15.199Z,22.92
2022-12-18T23:27:01.596Z,22.75
2022-12-18T23:29:50.193Z,21.55
2022-12-18T23:32:37.669Z,21.48
2022-12-18T23:35:23.329Z,25.35
2022-12-18T23:38:08.872Z,26.05
2022-12-18T23:40:55.698Z,26.05
2022-12-18T23:43:42.937Z,27.23
2022-12-18T23:46:32.489Z,32.05
2022-12-18T23:49:18.449Z,29.33
2022-12-18T23:52:04.530Z,29.40
2022-12-18T23:54:49.979Z,33.42
2022-12-18T23:57:35.624Z,30.75
